createdAt,value
2016-10-10T13:45:56.170Z,44.76
2016-10-10T13:46:41.450Z,45.04
2016-10-10T13:47:41.427Z,44.56
2016-10-10T13:48:41.421Z,44.85
2016-10-10T13:49:41.574Z,44.66
2016-10-10T13:50:42.135Z,44.87
2016-10-10T13:51:41.357Z,44.78
2016-10-10T13:52:41.318Z,44.59
2016-10-10T13:53:41.556Z,44.2
2016-10-10T13:54:41.287Z,43.91
2016-10-10T13:55:41.316Z,43.91
2016-10-10T13:56:41.212Z,44.01
2016-10-10T14:01:28.531Z,44.68
2016-10-10T14:02:27.511Z,44.76
2016-10-10T14:03:27.447Z,45.34
2016-10-10T14:04:33.688Z,45.7
2016-10-10T14:05:27.844Z,45.51
2016-10-10T14:06:27.370Z,45.79
2016-10-10T14:07:27.411Z,46.56
2016-10-10T14:08:27.444Z,47.22
2016-10-10T14:09:27.831Z,46.93
2016-10-10T14:10:27.499Z,46.93
2016-10-10T14:11:27.234Z,47.03
2016-10-10T14:13:35.860Z,47.58
2016-10-10T14:14:36.153Z,47.87
2016-10-10T14:15:35.746Z,47.77
2016-10-10T14:16:35.652Z,48.25
2016-10-10T14:17:35.866Z,48.23
2016-10-10T14:18:50.380Z,48.54
2016-10-10T14:19:35.723Z,48.61
2016-10-10T14:20:36.380Z,48.71
2016-10-10T14:21:35.620Z,49.1
2016-10-10T14:22:37.714Z,49.29
2016-10-10T14:23:35.742Z,49.1
2016-10-10T14:24:35.588Z,49.29
2016-10-10T14:25:35.521Z,49.46
2016-10-10T14:26:35.418Z,49.55
2016-10-10T14:27:35.394Z,49.74
2016-10-10T14:28:35.403Z,49.55
2016-10-10T14:29:35.826Z,49.74
2016-10-10T14:30:35.371Z,50.23
2016-10-10T14:31:35.299Z,50.42
2016-10-10T14:32:36.745Z,49.94
2016-10-10T14:37:07.941Z,50.68
2016-10-10T14:38:06.779Z,51.09
2016-10-10T14:39:07.253Z,50.87
2016-10-10T14:41:44.634Z,51.17
2016-10-10T14:43:38.675Z,50.81
2016-10-10T14:44:38.676Z,49.94
2016-10-10T14:45:38.691Z,49.94
2016-10-10T14:46:38.701Z,49.65
2016-10-10T14:47:38.742Z,49.38
2016-10-10T14:49:47.609Z,48.44
2016-10-10T14:50:47.891Z,48.25
2016-10-10T14:51:47.469Z,47.87
2016-10-10T14:52:47.473Z,47.87
2016-10-10T14:53:47.409Z,47.41
2016-10-10T14:54:48.210Z,47.51
2016-10-10T14:55:47.900Z,47.31
2016-10-10T14:56:47.310Z,46.93
2016-10-10T14:57:48.607Z,47.03
2016-10-10T14:58:47.272Z,47.22
2016-10-10T14:59:47.243Z,46.66
2016-10-10T15:01:47.330Z,46.18
2016-10-10T15:02:47.220Z,46.18
2016-10-10T15:03:47.271Z,45.99
2016-10-10T15:04:47.133Z,45.89
2016-10-10T15:06:48.051Z,45.53
2016-10-10T15:07:47.205Z,45.62
2016-10-10T15:08:47.937Z,45.82
2016-10-10T15:10:47.967Z,45.53
2016-10-10T15:11:47.076Z,45.43
2016-10-10T15:12:47.584Z,45.04
2016-10-10T15:14:01.635Z,44.76
2016-10-10T15:14:46.887Z,45.14
2016-10-10T15:16:01.524Z,44.76
2016-10-10T15:16:47.315Z,44.97
2016-10-10T15:17:46.921Z,44.49
2016-10-10T15:18:46.751Z,44.87
2016-10-10T15:19:46.773Z,44.68
2016-10-10T15:20:47.757Z,44.59
2016-10-10T15:21:46.742Z,44.29
2016-10-10T15:22:46.703Z,44.1
2016-10-10T15:23:46.730Z,44.1
2016-10-10T15:25:01.300Z,43.81
2016-10-10T15:25:47.199Z,44.2
2016-10-10T15:26:46.630Z,44.59
2016-10-10T15:27:46.555Z,45.04
2016-10-10T15:29:01.195Z,45.43
2016-10-10T15:29:46.889Z,45.7
2016-10-10T15:30:47.296Z,45.79
2016-10-10T15:31:46.557Z,46.18
2016-10-10T15:32:46.498Z,46.47
2016-10-10T15:33:47.246Z,47.12
2016-10-10T15:34:46.826Z,46.93
2016-10-10T15:35:46.384Z,47.22
2016-10-10T15:36:46.431Z,47.22
2016-10-10T15:37:46.385Z,47.41
2016-10-10T15:38:46.736Z,47.67
2016-10-10T15:39:46.624Z,47.77
2016-10-10T15:40:47.578Z,48.35
2016-10-10T15:42:46.136Z,48.54
2016-10-10T15:43:46.186Z,48.64
2016-10-10T15:44:46.530Z,48.74
2016-10-10T15:45:46.129Z,49
2016-10-10T15:47:05.362Z,49.19
2016-10-10T15:47:46.127Z,49.19
2016-10-10T15:48:46.338Z,49.29
2016-10-10T15:49:46.004Z,49.38
2016-10-10T15:50:45.966Z,49.38
2016-10-10T15:51:46.205Z,49.55
2016-10-10T15:52:45.993Z,49.74
2016-10-10T15:53:46.049Z,49.55
2016-10-10T15:54:46.012Z,50.23
2016-10-10T15:55:45.884Z,50.23
2016-10-10T15:56:46.172Z,50.04
2016-10-10T15:57:45.920Z,50.04
2016-10-10T15:58:45.823Z,50.23
2016-10-10T16:07:41.430Z,50.87
2016-10-10T16:08:43.268Z,50.78
2016-10-10T16:09:41.434Z,50.97
2016-10-10T16:17:14.028Z,48.35
2016-10-10T16:18:14.297Z,47.97
2016-10-10T16:19:13.804Z,47.8
2016-10-10T16:26:46.368Z,46.95
2016-10-10T16:27:46.264Z,46.47
2016-10-10T16:28:46.288Z,46.47
2016-10-10T16:29:46.325Z,46.08
2016-10-10T16:31:00.863Z,45.99
2016-10-10T16:31:46.477Z,46.08
2016-10-10T16:33:00.813Z,45.79
2016-10-10T16:33:46.143Z,45.53
2016-10-10T16:34:46.272Z,45.43
2016-10-10T16:35:46.157Z,45.43
2016-10-10T16:36:46.066Z,45.82
2016-10-10T16:37:46.221Z,45.72
2016-10-10T16:38:46.179Z,45.24
2016-10-10T16:39:46.342Z,45.43
2016-10-10T16:40:46.014Z,45.43
2016-10-10T16:41:46.130Z,45.24
2016-10-10T16:42:46.122Z,45.07
2016-10-10T16:43:46.389Z,45.07
2016-10-10T16:45:46.100Z,44.39
2016-10-10T16:46:46.757Z,44.68
2016-10-10T16:47:45.781Z,44.59
2016-10-10T16:48:45.828Z,44.78
2016-10-10T16:49:45.799Z,45.36
2016-10-10T16:50:46.200Z,45.82
2016-10-10T16:51:46.136Z,45.62
2016-10-10T16:52:45.796Z,45.89
2016-10-10T16:53:45.738Z,46.47
2016-10-10T16:54:45.621Z,47.14
2016-10-10T16:55:45.839Z,46.95
2016-10-10T16:56:46.070Z,47.12
2016-10-10T16:57:45.546Z,47.51
2016-10-10T16:58:45.575Z,47.7
2016-10-10T16:59:45.500Z,47.8
2016-10-10T17:02:23.811Z,48.25
2016-10-10T17:03:08.635Z,48.74
2016-10-10T17:04:23.216Z,48.83
2016-10-10T17:05:08.564Z,48.83
2016-10-10T17:06:23.196Z,48.64
2016-10-10T17:07:08.471Z,49.22
2016-10-10T17:10:31.601Z,49.68
2016-10-10T17:11:46.206Z,49.77
2016-10-10T17:12:32.150Z,49.77
2016-10-10T17:13:31.479Z,49.46
2016-10-10T17:14:32.893Z,50.13
2016-10-10T17:15:34.833Z,50.04
2016-10-10T17:16:31.439Z,50.13
2016-10-10T17:17:31.393Z,50.13
2016-10-10T17:18:31.387Z,50.42
2016-10-10T17:19:33.033Z,50.42
2016-10-10T17:20:31.394Z,50.71
2016-10-10T17:21:31.953Z,50.9
2016-10-10T17:22:31.503Z,50.81
2016-10-10T17:23:32.100Z,50.99
2016-10-10T17:24:31.188Z,50.71
2016-10-10T17:25:31.185Z,51.19
2016-10-10T17:26:31.635Z,50.81
2016-10-10T17:27:31.112Z,50.97
2016-10-10T17:29:31.262Z,51.35
2016-10-10T17:30:31.081Z,51.26
2016-10-10T17:31:31.099Z,51.26
2016-10-10T17:32:31.026Z,50.99
2016-10-10T17:33:32.522Z,50.71
2016-10-10T17:34:31.075Z,49.94
2016-10-10T17:35:32.582Z,49.94
2016-10-10T17:36:32.476Z,49.48
2016-10-10T17:37:31.349Z,49.32
2016-10-10T17:38:31.823Z,48.83
2016-10-10T17:39:30.798Z,48.74
2016-10-10T17:40:31.134Z,48.25
2016-10-10T17:41:31.152Z,47.77
2016-10-10T17:42:30.723Z,47.6
2016-10-10T17:43:30.702Z,47.41
2016-10-10T17:44:31.094Z,47.41
2016-10-10T17:45:30.733Z,47.31
2016-10-10T17:46:30.736Z,46.83
2016-10-10T17:47:30.601Z,47.24
2016-10-10T17:48:30.633Z,46.95
2016-10-10T17:49:30.992Z,46.37
2016-10-10T17:50:31.153Z,46.18
2016-10-10T17:51:30.559Z,46.08
2016-10-10T17:52:30.574Z,45.99
2016-10-10T17:53:30.614Z,45.89
2016-10-10T17:54:31.204Z,45.6
2016-10-10T17:55:30.409Z,45.53
2016-10-10T17:56:30.466Z,45.41
2016-10-10T17:57:30.399Z,45.72
2016-10-10T17:58:30.333Z,45.72
2016-10-10T17:59:30.404Z,45.62
2016-10-10T18:00:30.488Z,45.24
2016-10-10T18:01:30.363Z,45.24
2016-10-10T18:02:30.326Z,44.85
2016-10-10T18:03:30.207Z,44.95
2016-10-10T18:04:30.291Z,44.95
2016-10-10T18:05:44.833Z,44.85
2016-10-10T18:06:30.653Z,44.56
2016-10-10T18:07:30.138Z,44.87
2016-10-10T18:08:30.074Z,44.59
2016-10-10T18:09:30.063Z,44.68
2016-10-10T18:10:30.070Z,44.49
2016-10-10T18:11:30.068Z,44.29
2016-10-10T18:12:30.043Z,44.29
2016-10-10T18:13:29.987Z,44.39
2016-10-10T18:14:30.669Z,44.59
2016-10-10T18:15:30.771Z,44.85
2016-10-10T18:16:30.482Z,45.43
2016-10-10T18:17:30.276Z,45.43
2016-10-10T18:18:30.031Z,45.79
2016-10-10T18:19:30.449Z,46.28
2016-10-10T18:20:30.324Z,46.47
2016-10-10T18:21:29.809Z,47.22
2016-10-10T18:22:44.472Z,47.12
2016-10-10T18:23:29.758Z,47.12
2016-10-10T18:24:29.725Z,47.51
2016-10-10T18:25:29.766Z,47.39
2016-10-10T18:26:29.667Z,47.77
2016-10-10T18:27:44.736Z,47.97
2016-10-10T18:28:29.867Z,48.16
2016-10-10T18:29:44.260Z,48.25
2016-10-10T18:30:29.770Z,48.25
2016-10-10T18:31:29.665Z,48.74
2016-10-10T18:32:29.473Z,48.64
2016-10-10T18:33:29.620Z,48.52
2016-10-10T18:34:29.493Z,49.19
2016-10-10T18:35:29.908Z,49.19
2016-10-10T18:36:44.068Z,49.38
2016-10-10T18:37:29.488Z,49.1
2016-10-10T18:38:29.394Z,49.48
2016-10-10T18:39:29.456Z,49.58
2016-10-10T18:40:29.345Z,49.84
2016-10-10T18:41:29.526Z,49.46
2016-10-10T18:42:43.928Z,49.84
2016-10-10T18:43:29.233Z,50.13
2016-10-10T18:44:29.258Z,50.13
2016-10-10T18:45:29.203Z,50.13
2016-10-10T18:46:29.267Z,50.13
2016-10-10T18:47:29.156Z,50.42
2016-10-10T18:48:29.482Z,50.23
2016-10-10T18:49:43.851Z,50.61
2016-10-10T18:50:29.482Z,50.71
2016-10-10T18:51:29.033Z,50.9
2016-10-10T18:52:29.040Z,51.07
2016-10-10T18:53:29.024Z,50.68
2016-10-10T18:54:29.019Z,51.07
2016-10-10T18:55:29.005Z,50.97
2016-10-10T18:56:29.655Z,50.97
2016-10-10T18:57:28.851Z,50.87
2016-10-10T18:58:28.866Z,50.23
2016-10-10T18:59:29.012Z,50.23
2016-10-10T19:00:28.910Z,49.58
2016-10-10T19:01:28.772Z,49.1
2016-10-10T19:02:28.735Z,48.9
2016-10-10T19:03:28.730Z,48.64
2016-10-10T19:04:28.667Z,48.35
2016-10-10T19:05:28.698Z,47.58
2016-10-10T19:06:28.628Z,47.49
2016-10-10T19:07:28.894Z,47.22
2016-10-10T19:08:28.584Z,47.03
2016-10-10T19:09:28.627Z,46.93
2016-10-10T19:10:28.569Z,46.93
2016-10-10T19:11:28.888Z,47.05
2016-10-10T19:12:28.909Z,46.56
2016-10-10T19:13:28.479Z,46.18
2016-10-10T19:14:28.516Z,46.28
2016-10-10T19:15:29.108Z,45.79
2016-10-10T19:16:28.389Z,45.89
2016-10-10T19:17:28.374Z,45.51
2016-10-10T19:18:28.579Z,45.53
2016-10-10T19:19:28.314Z,45.72
2016-10-10T19:20:28.576Z,45.82
2016-10-10T19:21:28.280Z,45.34
2016-10-10T19:22:42.887Z,45.53
2016-10-10T19:23:28.385Z,45.43
2016-10-10T19:24:28.264Z,44.66
2016-10-10T19:25:28.172Z,44.76
2016-10-10T19:26:28.305Z,45.07
2016-10-10T19:27:28.104Z,44.76
2016-10-10T19:28:28.178Z,44.76
2016-10-10T19:29:28.167Z,44.97
2016-10-10T19:30:28.203Z,44.39
2016-10-10T19:31:28.080Z,44.68
2016-10-10T19:33:28.365Z,44.59
2016-10-10T19:34:28.053Z,44.2
2016-10-10T19:37:59.502Z,44.49
2016-10-10T19:38:59.482Z,45.34
2016-10-10T19:39:59.482Z,45.43
2016-10-10T19:40:59.862Z,45.43
2016-10-10T19:41:59.392Z,45.89
2016-10-10T19:42:59.492Z,46.08
2016-10-10T19:46:22.468Z,47.12
2016-10-10T19:47:22.461Z,47.31
2016-10-10T19:48:22.690Z,47.29
2016-10-10T19:49:22.431Z,47.39
2016-10-10T19:50:22.466Z,47.77
2016-10-10T19:51:25.135Z,47.67
2016-10-10T19:52:23.566Z,47.97
2016-10-10T19:53:22.372Z,48.16
2016-10-10T19:54:22.760Z,48.33
2016-10-10T19:58:08.568Z,48.61
2016-10-10T19:59:09.087Z,49.19
2016-10-10T20:00:08.520Z,49.29
2016-10-10T20:01:08.531Z,49.38
2016-10-10T20:02:08.439Z,49.29
2016-10-10T20:03:08.386Z,49.36
2016-10-10T20:04:08.421Z,49.55
2016-10-10T20:06:46.155Z,49.74
2016-10-10T20:07:31.774Z,49.94
2016-10-10T20:08:31.469Z,50.23
2016-10-10T20:09:32.444Z,50.04
2016-10-10T20:10:32.571Z,50.04
2016-10-10T20:12:31.722Z,50.32
2016-10-10T20:13:31.518Z,50.32
2016-10-10T20:14:31.777Z,50.51
2016-10-10T20:16:31.243Z,50.87
2016-10-10T20:17:31.703Z,50.78
2016-10-10T20:18:31.140Z,50.68
2016-10-10T20:19:31.143Z,50.97
2016-10-10T20:20:33.429Z,50.87
2016-10-10T20:21:31.156Z,50.13
2016-10-10T20:22:45.747Z,50.23
2016-10-10T20:23:31.040Z,49.74
2016-10-10T20:24:45.696Z,49.38
2016-10-10T20:25:31.595Z,48.9
2016-10-10T20:26:30.982Z,48.54
2016-10-10T20:27:31.977Z,48.16
2016-10-10T20:29:31.354Z,47.58
2016-10-10T20:30:30.921Z,47.49
2016-10-10T20:31:30.817Z,47.12
2016-10-10T20:32:30.811Z,46.83
2016-10-10T20:33:30.874Z,47.03
2016-10-10T20:34:30.750Z,46.83
2016-10-10T20:35:30.756Z,46.35
2016-10-10T20:36:30.736Z,46.28
2016-10-10T20:37:30.664Z,46.18
2016-10-10T20:38:31.030Z,45.89
2016-10-10T20:39:30.757Z,45.79
2016-10-10T20:43:16.935Z,45.6
2016-10-10T20:44:16.876Z,45.53
2016-10-10T20:45:16.943Z,45.34
2016-10-10T20:46:31.509Z,44.76
2016-10-10T20:47:16.866Z,44.76
2016-10-10T20:48:16.850Z,44.95
2016-10-10T20:49:16.812Z,44.46
2016-10-10T20:50:31.453Z,45.04
2016-10-10T20:51:16.767Z,44.46
2016-10-10T20:52:16.760Z,44.85
2016-10-10T20:53:16.683Z,44.66
2016-10-10T20:54:16.736Z,44.39
2016-10-10T20:55:16.683Z,44.2
2016-10-10T20:56:16.722Z,44.2
2016-10-10T20:57:16.595Z,43.91
2016-10-10T20:58:16.561Z,43.91
2016-10-10T20:59:16.554Z,44.01
2016-10-10T21:00:16.584Z,43.81
2016-10-10T21:01:31.219Z,43.81
2016-10-10T21:02:16.465Z,43.81
2016-10-10T21:03:16.899Z,44.39
2016-10-10T21:04:16.506Z,44.56
2016-10-10T21:05:16.427Z,44.95
2016-10-10T21:06:16.355Z,45.51
2016-10-10T21:07:16.333Z,45.6
2016-10-10T21:08:16.311Z,45.6
2016-10-10T21:09:17.921Z,45.97
2016-10-10T21:10:16.315Z,46.15
2016-10-10T21:13:33.219Z,46.81
2016-10-10T21:14:33.209Z,46.91
2016-10-10T21:15:33.277Z,47.39
2016-10-10T21:16:33.155Z,47.19
2016-10-10T21:17:33.097Z,47.49
2016-10-10T21:18:33.140Z,47.87
2016-10-10T21:19:33.058Z,47.87
2016-10-10T21:20:47.697Z,48.06
2016-10-10T21:21:33.513Z,48.03
2016-10-10T21:22:32.998Z,48.23
2016-10-10T21:23:32.997Z,48.23
2016-10-10T21:24:32.932Z,48.33
2016-10-10T21:25:33.417Z,48.81
2016-10-10T21:27:32.914Z,48.97
2016-10-10T21:29:41.356Z,49.36
2016-10-10T21:30:41.309Z,49.17
2016-10-10T21:33:04.769Z,49.46
2016-10-10T21:34:04.434Z,49.55
2016-10-10T21:35:04.358Z,49.65
2016-10-10T21:36:04.326Z,49.65
2016-10-10T21:37:04.778Z,49.82
2016-10-10T21:38:04.689Z,49.82
2016-10-10T21:39:04.264Z,50.2
2016-10-10T21:40:04.245Z,50.13
2016-10-10T21:41:04.242Z,50.01
2016-10-10T21:42:04.231Z,50.01
2016-10-10T21:43:04.150Z,50.01
2016-10-10T21:44:04.139Z,50.2
2016-10-10T21:45:04.519Z,49.63
2016-10-10T21:46:04.098Z,49.46
2016-10-10T21:47:04.045Z,49.36
2016-10-10T21:48:04.012Z,48.81
2016-10-10T21:49:04.012Z,48.23
2016-10-10T21:50:03.975Z,47.97
2016-10-10T21:51:03.990Z,47.49
2016-10-10T21:52:03.884Z,47.19
2016-10-10T21:53:04.514Z,47.1
2016-10-10T21:54:03.944Z,47
2016-10-10T21:55:03.838Z,46.83
2016-10-10T21:56:19.093Z,46.25
2016-10-10T21:57:03.772Z,46.06
2016-10-10T21:58:03.821Z,45.87
2016-10-10T21:59:18.393Z,45.48
2016-10-10T22:00:03.715Z,45.51
2016-10-10T22:01:03.731Z,45.7
2016-10-10T22:02:03.671Z,45.51
2016-10-10T22:03:03.628Z,45.03
2016-10-10T22:04:03.972Z,45.31
2016-10-10T22:07:03.957Z,44.76
2016-10-10T22:08:03.520Z,44.46
2016-10-10T22:09:03.996Z,44.64
2016-10-10T22:10:03.440Z,44.76
2016-10-10T22:11:03.475Z,44.18
2016-10-10T22:12:03.445Z,44.27
2016-10-10T22:13:03.363Z,43.79
2016-10-10T22:14:18.025Z,43.98
2016-10-10T22:15:03.325Z,44.18
2016-10-10T22:16:18.011Z,43.79
2016-10-10T22:17:03.273Z,43.79
2016-10-10T22:18:03.366Z,43.7
2016-10-10T22:19:03.254Z,43.62
2016-10-10T22:22:03.258Z,43.24
2016-10-10T22:23:03.171Z,43.24
2016-10-10T22:24:03.520Z,43.14
2016-10-10T22:25:03.226Z,43.04
2016-10-10T22:26:03.101Z,43.04
2016-10-10T22:27:03.020Z,43.14
2016-10-10T22:28:04.622Z,43.24
2016-10-10T22:29:03.001Z,43.62
2016-10-10T22:30:09.356Z,43.98
2016-10-10T22:31:03.061Z,44.37
2016-10-10T22:32:17.933Z,44.45
2016-10-10T22:33:02.986Z,44.73
2016-10-10T22:34:17.588Z,45.41
2016-10-10T22:35:04.375Z,45.68
2016-10-10T22:36:02.841Z,45.58
2016-10-10T22:37:03.246Z,45.97
2016-10-10T22:38:02.940Z,45.97
2016-10-10T22:39:02.947Z,46.23
2016-10-10T22:40:04.217Z,46.33
2016-10-10T22:41:02.665Z,46.52
2016-10-10T22:42:02.766Z,47.1
2016-10-10T22:43:03.030Z,46.91
2016-10-10T22:44:02.684Z,47.19
2016-10-10T22:45:02.813Z,47.19
2016-10-10T22:47:02.825Z,47.17
2016-10-10T22:48:17.322Z,47.36
2016-10-10T22:49:02.909Z,47.46
2016-10-10T22:50:17.556Z,47.65
2016-10-10T22:51:02.719Z,47.75
2016-10-10T22:52:02.699Z,48.13
2016-10-10T22:53:02.713Z,48.23
2016-10-10T22:54:02.651Z,48.21
2016-10-10T22:55:03.200Z,48.49
2016-10-10T22:56:02.763Z,48.49
2016-10-10T22:57:02.637Z,48.79
2016-10-10T22:58:02.464Z,48.88
2016-10-10T22:59:17.105Z,48.88
2016-10-10T23:00:02.365Z,48.79
2016-10-10T23:01:02.203Z,49.07
2016-10-10T23:02:02.229Z,49.17
2016-10-10T23:03:02.282Z,49.15
2016-10-10T23:04:02.138Z,49.36
2016-10-10T23:05:02.317Z,49.33
2016-10-10T23:06:02.416Z,48.95
2016-10-10T23:07:02.573Z,49.15
2016-10-10T23:08:02.142Z,49.24
2016-10-10T23:09:02.114Z,49.27
2016-10-10T23:10:02.439Z,48.59
2016-10-10T23:11:02.361Z,48.21
2016-10-10T23:12:02.030Z,47.85
2016-10-10T23:13:02.694Z,47.27
2016-10-10T23:14:02.102Z,46.91
2016-10-10T23:15:01.974Z,47.19
2016-10-10T23:16:03.428Z,46.42
2016-10-10T23:17:01.943Z,45.84
2016-10-10T23:18:01.862Z,45.84
2016-10-10T23:19:01.816Z,45.39
2016-10-10T23:20:01.814Z,45.77
2016-10-10T23:21:16.390Z,45.29
2016-10-10T23:22:01.929Z,45.29
2016-10-10T23:23:03.523Z,45.29
2016-10-10T23:24:01.780Z,44.71
2016-10-10T23:25:01.637Z,45.12
2016-10-10T23:26:01.660Z,44.83
2016-10-10T23:27:02.984Z,44.54
2016-10-10T23:28:01.551Z,44.15
2016-10-10T23:29:01.638Z,44.15
2016-10-10T23:30:03.713Z,44.25
2016-10-10T23:31:01.966Z,44.45
2016-10-10T23:32:01.474Z,43.96
